Time;durP1;ratioP1;P1;durP2;ratioP2;P2;SDS_P1;SDS_P2;PMS_P1;PMS_P2;Temp;Humidity;BMP_temperature;BMP_pressure;BME280_temperature;BME280_humidity;BME280_pressure;Samples;Min_cycle;Max_cycle;Signal;HPM_P1;HPM_P2
2024/04/25 00:00:56;;;;;;;5.32;2.50;;;;;;;13.10;100.00;96444.56;5460149;26;20004;-79
2024/04/25 00:03:22;;;;;;;3.78;2.65;;;;;;;13.19;100.00;96447.25;5448844;26;20335;-79
2024/04/25 00:05:51;;;;;;;3.13;2.35;;;;;;;13.23;100.00;96435.25;5452836;26;19992;-79
2024/04/25 00:08:16;;;;;;;2.58;2.25;;;;;;;13.29;100.00;96445.44;5427870;26;20003;-80
2024/04/25 00:10:42;;;;;;;4.30;2.35;;;;;;;13.35;100.00;96444.06;5462043;26;19991;-81
2024/04/25 00:13:07;;;;;;;3.38;2.15;;;;;;;13.44;100.00;96448.59;5428123;26;19996;-81
2024/04/25 00:15:33;;;;;;;3.55;1.60;;;;;;;13.52;100.00;96446.03;5423502;26;19998;-81
2024/04/25 00:17:59;;;;;;;2.38;1.75;;;;;;;13.49;100.00;96441.78;5464776;26;20443;-79
2024/04/25 00:20:24;;;;;;;3.00;2.03;;;;;;;13.50;100.00;96443.47;5444363;26;20053;-80
2024/04/25 00:22:50;;;;;;;4.88;1.90;;;;;;;13.53;100.00;96448.56;5411300;26;20052;-79
2024/04/25 00:25:16;;;;;;;6.20;1.77;;;;;;;13.63;100.00;96445.06;5442837;26;20035;-80
2024/04/25 00:27:42;;;;;;;5.68;1.80;;;;;;;13.62;100.00;96433.47;5456563;26;20015;-81
2024/04/25 00:30:08;;;;;;;2.95;1.70;;;;;;;13.66;100.00;96420.59;5519812;26;19993;-81
2024/04/25 00:32:34;;;;;;;4.75;2.03;;;;;;;13.66;100.00;96421.44;5451288;26;19991;-82
2024/04/25 00:35:02;;;;;;;6.35;2.17;;;;;;;13.70;100.00;96422.00;5468071;26;19993;-81
2024/04/25 00:37:28;;;;;;;2.53;1.77;;;;;;;13.75;100.00;96422.44;5484790;26;19998;-80
2024/04/25 00:39:55;;;;;;;3.10;1.70;;;;;;;13.64;100.00;96430.63;5495556;26;20440;-80
2024/04/25 00:42:22;;;;;;;3.53;1.98;;;;;;;13.56;100.00;96421.44;5517761;25;19994;-81
2024/04/25 00:44:48;;;;;;;3.85;1.77;;;;;;;13.56;100.00;96429.50;5501868;26;20342;-81
2024/04/25 00:47:17;;;;;;;3.53;1.80;;;;;;;13.60;100.00;96437.28;5504624;26;19993;-81
2024/04/25 00:49:43;;;;;;;3.28;1.85;;;;;;;13.61;100.00;96438.97;5442672;26;20022;-81
2024/04/25 00:52:10;;;;;;;7.93;1.85;;;;;;;13.58;100.00;96434.72;5519180;26;20008;-82
2024/04/25 00:54:37;;;;;;;6.35;1.70;;;;;;;13.70;100.00;96444.34;5487871;26;20054;-81
2024/04/25 00:57:02;;;;;;;4.15;1.58;;;;;;;13.75;100.00;96436.69;5483403;26;20017;-81
2024/04/25 00:59:30;;;;;;;2.05;1.50;;;;;;;13.76;100.00;96432.19;5467421;26;20330;-81
2024/04/25 01:01:59;;;;;;;2.78;1.50;;;;;;;13.82;100.00;96431.59;5483075;26;19989;-81
2024/04/25 01:04:25;;;;;;;3.17;1.75;;;;;;;13.76;100.00;96432.19;5477703;25;19990;-78
2024/04/25 01:06:53;;;;;;;3.08;1.70;;;;;;;13.78;100.00;96427.53;5471833;26;19990;-81
2024/04/25 01:09:19;;;;;;;2.30;1.58;;;;;;;13.77;100.00;96423.13;5498208;26;20007;-81
2024/04/25 01:11:44;;;;;;;2.40;1.70;;;;;;;13.82;100.00;96420.84;5496499;26;19990;-80
2024/04/25 01:14:10;;;;;;;3.03;1.80;;;;;;;13.89;100.00;96417.47;5488593;26;20013;-81
2024/04/25 01:16:55;;;;;;;3.85;1.48;;;;;;;13.86;100.00;96420.44;5462306;26;20023;-80
2024/04/25 01:19:20;;;;;;;3.38;1.88;;;;;;;13.81;100.00;96425.38;5477705;26;20453;-81
2024/04/25 01:21:47;;;;;;;4.38;1.60;;;;;;;13.80;100.00;96422.84;5486006;26;19998;-80
2024/04/25 01:24:18;;;;;;;1.80;1.30;;;;;;;13.72;100.00;96414.66;5499113;26;20481;-79
2024/04/25 01:26:44;;;;;;;1.40;1.25;;;;;;;13.77;100.00;96418.59;5488626;26;20005;-80
2024/04/25 01:29:13;;;;;;;2.58;1.50;;;;;;;13.76;100.00;96416.06;5496300;26;19991;-81
2024/04/25 01:31:41;;;;;;;3.85;1.60;;;;;;;13.68;100.00;96418.59;5510178;25;20414;-81
2024/04/25 01:34:07;;;;;;;2.53;1.42;;;;;;;13.68;100.00;96418.59;5459963;26;19990;-80
2024/04/25 01:36:37;;;;;;;1.58;1.27;;;;;;;13.65;100.00;96421.59;5471882;26;20014;-79
2024/04/25 01:39:04;;;;;;;3.35;1.40;;;;;;;13.63;100.00;96420.88;5493055;26;19993;-80
2024/04/25 01:41:30;;;;;;;4.85;1.38;;;;;;;13.63;100.00;96416.34;5458521;26;20035;-79
2024/04/25 01:43:55;;;;;;;3.22;1.80;;;;;;;13.60;100.00;96411.25;5524554;25;19998;-80
2024/04/25 01:46:21;;;;;;;1.50;1.40;;;;;;;13.64;100.00;96417.19;5448638;26;20032;-80
2024/04/25 01:48:47;;;;;;;1.73;1.42;;;;;;;13.50;100.00;96413.91;5535407;25;20013;-80
2024/04/25 01:51:15;;;;;;;2.25;1.25;;;;;;;13.54;100.00;96409.97;5567250;25;20003;-80
2024/04/25 01:53:41;;;;;;;2.65;1.40;;;;;;;13.49;100.00;96403.34;5492527;26;20009;-80
2024/04/25 01:56:07;;;;;;;1.55;1.35;;;;;;;13.52;100.00;96408.44;5484349;26;19994;-81
2024/04/25 01:58:32;;;;;;;3.97;1.25;;;;;;;13.53;100.00;96410.13;5454820;26;19994;-79
2024/04/25 02:00:58;;;;;;;1.67;1.40;;;;;;;13.54;100.00;96409.97;5517685;26;19997;-79
2024/04/25 02:03:23;;;;;;;4.78;1.52;;;;;;;13.56;100.00;96389.22;5471930;26;19994;-80
2024/04/25 02:05:49;;;;;;;4.30;1.13;;;;;;;13.61;100.00;96385.22;5473346;26;19994;-79
2024/04/25 02:08:15;;;;;;;1.40;1.20;;;;;;;13.58;100.00;96386.38;5490531;26;20009;-80
2024/04/25 02:10:40;;;;;;;2.80;1.20;;;;;;;13.55;100.00;96373.22;5519985;25;20018;-79
2024/04/25 02:13:06;;;;;;;1.38;1.10;;;;;;;13.57;100.00;96380.13;5468485;26;19990;-80
2024/04/25 02:15:32;;;;;;;2.15;1.23;;;;;;;13.51;100.00;96380.69;5456211;26;20442;-80
2024/04/25 02:17:57;;;;;;;1.52;1.10;;;;;;;13.57;100.00;96385.50;5512803;25;19990;-81
2024/04/25 02:25:51;;;;;;;1.23;1.13;;;;;;;13.46;100.00;96377.59;5497121;26;20053;-79
2024/04/25 02:28:16;;;;;;;3.00;1.60;;;;;;;13.47;100.00;96379.28;5498277;26;19998;-80
2024/04/25 02:30:42;;;;;;;1.33;1.15;;;;;;;13.47;100.00;96383.84;5470072;26;20000;-79
2024/04/25 02:33:10;;;;;;;2.70;1.38;;;;;;;13.49;100.00;96388.06;5510213;26;20001;-81
2024/04/25 02:35:36;;;;;;;3.05;1.50;;;;;;;13.41;100.00;96382.53;5496280;26;20354;-80
2024/04/25 02:38:01;;;;;;;6.70;1.50;;;;;;;13.35;100.00;96393.84;5460294;26;19994;-80
2024/04/25 02:40:27;;;;;;;2.80;1.63;;;;;;;13.22;100.00;96395.13;5502532;26;19994;-79
2024/04/25 02:42:53;;;;;;;3.10;1.45;;;;;;;13.15;100.00;96407.38;5494197;26;19994;-80
2024/04/25 02:45:18;;;;;;;3.25;1.40;;;;;;;13.09;100.00;96400.75;5495072;26;19994;-80
2024/04/25 02:47:44;;;;;;;1.80;1.42;;;;;;;13.04;100.00;96408.34;5526490;26;20031;-79
2024/04/25 02:50:10;;;;;;;1.92;1.20;;;;;;;13.14;100.00;96408.38;5443677;26;19990;-79
2024/04/25 02:52:37;;;;;;;1.90;1.35;;;;;;;13.09;100.00;96398.06;5505340;26;20005;-79
2024/04/25 02:55:03;;;;;;;2.22;1.50;;;;;;;13.11;100.00;96396.06;5493162;25;20050;-79
2024/04/25 02:57:28;;;;;;;1.73;1.20;;;;;;;13.20;100.00;96397.94;5486228;26;19989;-77
2024/04/25 02:59:54;;;;;;;1.52;1.10;;;;;;;13.25;100.00;96405.56;5527738;25;20001;-79
2024/04/25 03:02:20;;;;;;;2.30;1.23;;;;;;;13.18;100.00;96407.97;5504759;26;19990;-79
2024/04/25 03:04:45;;;;;;;1.80;1.42;;;;;;;13.15;100.00;96400.19;5459888;26;20001;-78
2024/04/25 03:07:11;;;;;;;7.53;2.30;;;;;;;13.17;100.00;96411.63;5482002;26;20028;-79
2024/04/25 03:09:37;;;;;;;12.88;4.05;;;;;;;13.05;100.00;96404.66;5497374;26;19994;-80
2024/04/25 03:12:02;;;;;;;8.27;2.58;;;;;;;13.09;100.00;96403.44;5492958;26;19994;-80
2024/04/25 03:14:28;;;;;;;8.65;3.00;;;;;;;13.04;100.00;96411.03;5501785;25;20002;-80
2024/04/25 03:16:54;;;;;;;12.00;4.28;;;;;;;13.02;100.00;96405.78;5517468;25;19994;-79
2024/04/25 03:19:20;;;;;;;5.88;1.98;;;;;;;13.07;100.00;96417.94;5477178;26;19997;-80
2024/04/25 03:21:45;;;;;;;4.05;2.20;;;;;;;13.07;100.00;96418.81;5476562;26;20004;-80
2024/04/25 03:24:11;;;;;;;6.38;2.30;;;;;;;13.03;100.00;96420.06;5462071;25;20047;-81
2024/04/25 03:26:37;;;;;;;4.95;2.00;;;;;;;13.05;100.00;96412.69;5504982;26;19993;-80
2024/04/25 03:29:02;;;;;;;2.08;1.70;;;;;;;13.05;100.00;96399.28;5492576;26;20009;-81
2024/04/25 03:31:28;;;;;;;8.07;2.65;;;;;;;13.06;100.00;96403.69;5506285;26;19998;-80
2024/04/25 03:33:53;;;;;;;8.88;2.42;;;;;;;12.99;100.00;96405.19;5457787;26;19993;-76
2024/04/25 03:36:19;;;;;;;10.05;3.17;;;;;;;13.02;100.00;96410.28;5497486;26;19990;-80
2024/04/25 03:38:45;;;;;;;4.30;2.13;;;;;;;13.00;100.00;96410.44;5476880;26;20072;-80
2024/04/25 03:41:15;;;;;;;6.32;1.90;;;;;;;12.98;100.00;96408.91;5504603;26;20039;-79
2024/04/25 03:43:43;;;;;;;7.43;2.63;;;;;;;12.91;100.00;96413.09;5453906;26;19992;-80
2024/04/25 03:46:09;;;;;;;4.85;2.20;;;;;;;12.94;100.00;96418.19;5448133;26;19994;-78
2024/04/25 03:48:35;;;;;;;1.80;1.42;;;;;;;12.95;100.00;96420.72;5459416;26;20009;-78
2024/04/25 03:51:04;;;;;;;25.48;14.63;;;;;;;12.96;100.00;96422.44;5477837;26;19994;-78
2024/04/25 03:53:29;;;;;;;33.63;18.10;;;;;;;12.86;100.00;96421.56;5455169;25;19993;-78
2024/04/25 03:55:55;;;;;;;5.45;2.10;;;;;;;12.81;100.00;96417.59;5473054;26;20009;-77
2024/04/25 03:58:21;;;;;;;15.23;7.68;;;;;;;12.94;100.00;96423.56;5494448;26;19997;-80
2024/04/25 04:00:46;;;;;;;6.68;3.70;;;;;;;12.93;100.00;96422.72;5497601;26;19993;-80
2024/04/25 04:03:14;;;;;;;5.82;1.88;;;;;;;12.87;100.00;96412.53;5449410;26;20008;-79
2024/04/25 04:05:39;;;;;;;5.97;3.30;;;;;;;12.95;100.00;96414.53;5484428;26;19989;-80
2024/04/25 04:08:05;;;;;;;3.78;2.00;;;;;;;12.84;100.00;96402.06;5466036;26;19994;-80
2024/04/25 04:10:31;;;;;;;5.40;1.58;;;;;;;12.98;100.00;96411.59;5500170;26;20403;-79
2024/04/25 04:12:57;;;;;;;53.25;27.77;;;;;;;12.98;100.00;96414.25;5438493;26;20392;-79
2024/04/25 04:15:22;;;;;;;8.93;4.88;;;;;;;12.95;100.00;96419.91;5463442;26;20026;-77
2024/04/25 04:17:48;;;;;;;4.78;2.03;;;;;;;12.91;100.00;96407.75;5486010;26;20286;-79
2024/04/25 04:20:13;;;;;;;4.18;1.58;;;;;;;13.04;100.00;96425.28;5498890;25;19989;-80
2024/04/25 04:22:39;;;;;;;4.65;2.17;;;;;;;13.05;100.00;96423.44;5450763;26;20041;-78
2024/04/25 04:25:05;;;;;;;3.85;2.00;;;;;;;12.99;100.00;96426.69;5490588;26;19995;-79
2024/04/25 04:27:31;;;;;;;8.27;3.10;;;;;;;13.01;100.00;96411.31;5472959;26;19994;-78
2024/04/25 04:29:56;;;;;;;5.22;2.50;;;;;;;13.09;100.00;96414.16;5487813;26;19994;-78
2024/04/25 04:32:23;;;;;;;6.82;3.42;;;;;;;13.06;100.00;96406.34;5472400;26;19995;-79
2024/04/25 04:34:49;;;;;;;2.53;1.50;;;;;;;13.18;100.00;96396.38;5443118;26;20002;-79
2024/04/25 04:37:15;;;;;;;38.53;19.27;;;;;;;13.25;100.00;96405.56;5457691;26;19998;-81
2024/04/25 04:39:40;;;;;;;11.13;4.53;;;;;;;13.27;100.00;96401.75;5482087;26;20387;-77
2024/04/25 04:42:06;;;;;;;2.70;1.67;;;;;;;13.23;100.00;96403.00;5465961;26;20044;-82
2024/04/25 04:44:31;;;;;;;13.27;5.82;;;;;;;13.24;100.00;96399.34;5476048;26;19994;-85
2024/04/25 04:46:57;;;;;;;26.15;10.43;;;;;;;13.22;100.00;96411.22;5440220;26;20002;-76
2024/04/25 04:49:23;;;;;;;8.25;3.20;;;;;;;13.31;100.00;96432.72;5431591;26;20006;-80
2024/04/25 04:51:48;;;;;;;3.28;1.50;;;;;;;13.37;100.00;96432.16;5437468;26;20005;-78
2024/04/25 04:54:14;;;;;;;5.40;1.90;;;;;;;13.39;100.00;96435.56;5471120;26;19997;-79
2024/04/25 04:56:40;;;;;;;6.65;1.70;;;;;;;13.41;100.00;96438.13;5472925;26;20013;-77
2024/04/25 04:59:06;;;;;;;4.43;1.35;;;;;;;13.42;100.00;96431.75;5466941;26;19994;-77
2024/04/25 05:01:31;;;;;;;2.90;1.80;;;;;;;13.58;100.00;96430.22;5453207;26;20009;-78
2024/04/25 05:03:57;;;;;;;9.07;2.08;;;;;;;13.71;100.00;96437.13;5453382;26;20030;-78
2024/04/25 05:06:24;;;;;;;4.30;1.50;;;;;;;13.73;100.00;96427.09;5483182;26;20090;-77
2024/04/25 05:08:50;;;;;;;16.65;1.58;;;;;;;13.81;100.00;96435.31;5483634;26;20350;-79
2024/04/25 05:11:16;;;;;;;11.93;2.60;;;;;;;13.87;100.00;96424.81;5452985;26;19994;-79
2024/04/25 05:13:42;;;;;;;5.90;1.50;;;;;;;13.83;100.00;96423.41;5483399;26;19998;-77
2024/04/25 05:16:09;;;;;;;1.88;1.48;;;;;;;13.95;100.00;96421.41;5445991;26;20323;-78
2024/04/25 05:18:34;;;;;;;3.72;1.73;;;;;;;14.04;100.00;96425.94;5458447;26;20006;-77
2024/04/25 05:21:01;;;;;;;2.00;1.30;;;;;;;14.07;100.00;96414.88;5458544;26;20310;-78
2024/04/25 05:23:26;;;;;;;1.73;1.13;;;;;;;14.15;100.00;96415.00;5511816;26;19998;-78
2024/04/25 05:25:52;;;;;;;2.08;1.23;;;;;;;14.11;100.00;96410.94;5487835;26;20051;-76
2024/04/25 05:28:18;;;;;;;2.15;1.10;;;;;;;14.06;98.43;96421.25;5478148;26;20390;-78
2024/04/25 05:30:43;;;;;;;2.30;1.35;;;;;;;14.28;99.37;96414.69;5472552;26;19995;-78
2024/04/25 05:33:09;;;;;;;4.72;1.70;;;;;;;14.39;97.91;96409.19;5513416;25;20010;-80
2024/04/25 05:35:35;;;;;;;5.65;1.50;;;;;;;14.57;97.21;96413.66;5479351;26;20086;-79
2024/04/25 05:38:01;;;;;;;2.30;1.13;;;;;;;14.72;96.26;96402.41;5429057;26;20400;-81
2024/04/25 05:40:27;;;;;;;1.38;1.05;;;;;;;14.58;93.50;96409.97;5456578;26;20020;-80
2024/04/25 05:42:52;;;;;;;2.65;2.03;;;;;;;14.70;95.30;96401.72;5451988;26;19999;-79
2024/04/25 05:45:18;;;;;;;1.88;1.48;;;;;;;14.81;96.46;96410.44;5439547;26;20417;-78
2024/04/25 05:47:44;;;;;;;4.53;1.13;;;;;;;14.75;94.20;96405.66;5454249;26;20018;-79
2024/04/25 05:50:10;;;;;;;2.70;1.02;;;;;;;14.58;89.79;96404.56;5458602;26;20017;-79
2024/04/25 05:52:36;;;;;;;2.15;1.30;;;;;;;14.63;91.99;96418.47;5428342;26;20002;-79
2024/04/25 05:55:02;;;;;;;1.55;1.40;;;;;;;14.61;91.93;96398.06;5465114;26;19998;-79
2024/04/25 05:57:28;;;;;;;1.58;1.00;;;;;;;14.55;94.60;96410.25;5483899;26;20892;-80
2024/04/25 05:59:54;;;;;;;7.97;2.17;;;;;;;14.52;96.54;96415.94;5459759;26;19995;-82
2024/04/25 06:02:24;;;;;;;7.43;1.40;;;;;;;14.39;99.23;96414.56;5448072;26;20006;-80
2024/04/25 06:04:52;;;;;;;7.35;2.00;;;;;;;14.42;100.00;96420.50;5458444;26;19994;-81
2024/04/25 06:07:18;;;;;;;4.53;1.38;;;;;;;14.28;99.71;96418.25;5454335;26;20014;-81
2024/04/25 06:09:43;;;;;;;4.68;1.10;;;;;;;14.27;99.42;96411.19;5450846;26;20401;-81
2024/04/25 06:12:09;;;;;;;4.43;1.58;;;;;;;14.25;100.00;96410.47;5441982;26;20039;-82
2024/04/25 06:14:35;;;;;;;4.43;1.52;;;;;;;14.29;100.00;96414.56;5433330;26;20009;-82
2024/04/25 06:17:06;;;;;;;5.03;1.45;;;;;;;14.22;100.00;96413.44;5481323;26;20413;-82
2024/04/25 06:19:31;;;;;;;2.85;2.03;;;;;;;14.25;100.00;96407.78;5432476;26;20002;-82
2024/04/25 06:21:58;;;;;;;1.58;1.30;;;;;;;14.21;100.00;96410.91;5479768;26;20318;-81
2024/04/25 06:24:24;;;;;;;4.03;1.45;;;;;;;14.36;100.00;96414.88;5432859;26;20410;-81
2024/04/25 06:26:49;;;;;;;3.38;1.40;;;;;;;14.55;100.00;96414.81;5434967;26;20403;-81
2024/04/25 06:29:15;;;;;;;6.47;2.05;;;;;;;14.75;100.00;96412.88;5412859;26;20006;-82
2024/04/25 06:31:41;;;;;;;1.40;1.30;;;;;;;14.92;96.93;96412.94;5428958;26;19994;-83
2024/04/25 06:34:09;;;;;;;5.20;1.60;;;;;;;14.86;97.50;96401.94;5430486;26;20477;-82
2024/04/25 06:36:39;;;;;;;21.98;2.25;;;;;;;15.03;97.08;96403.81;5417345;26;19999;-81
2024/04/25 06:39:06;;;;;;;4.97;1.40;;;;;;;14.76;99.74;96395.75;5446216;26;20315;-83
2024/04/25 06:41:32;;;;;;;1.88;1.40;;;;;;;14.99;96.88;96405.09;5417820;26;20311;-81
2024/04/25 06:43:58;;;;;;;7.18;1.67;;;;;;;15.00;98.04;96407.66;5435218;26;20072;-81
2024/04/25 06:46:24;;;;;;;26.30;2.88;;;;;;;15.17;96.60;96405.97;5420158;26;20010;-82
2024/04/25 06:48:49;;;;;;;5.88;1.58;;;;;;;15.22;95.26;96410.94;5435390;26;20010;-82
2024/04/25 06:51:19;;;;;;;6.82;2.40;;;;;;;15.48;96.31;96403.81;5419806;26;19995;-82
2024/04/25 06:53:45;;;;;;;3.72;1.55;;;;;;;15.64;94.44;96396.75;5420090;26;20011;-82
2024/04/25 06:56:11;;;;;;;1.85;1.10;;;;;;;15.85;90.60;96401.81;5445357;26;20392;-82
2024/04/25 06:58:36;;;;;;;5.85;1.40;;;;;;;15.60;92.76;96408.84;5413641;26;20006;-82
2024/04/25 07:01:04;;;;;;;7.55;1.80;;;;;;;15.47;92.60;96402.97;5413203;26;20492;-81
2024/04/25 07:03:30;;;;;;;6.93;2.35;;;;;;;15.25;97.40;96406.09;5413210;26;20006;-81
2024/04/25 07:05:55;;;;;;;7.15;2.33;;;;;;;14.93;99.31;96414.63;5383876;26;19995;-82
2024/04/25 07:08:21;;;;;;;8.77;2.83;;;;;;;14.82;100.00;96412.16;5441290;26;20072;-81
2024/04/25 07:10:48;;;;;;;10.85;2.40;;;;;;;14.91;100.00;96419.31;5449471;26;19999;-82
2024/04/25 07:13:13;;;;;;;6.63;1.88;;;;;;;14.94;100.00;96410.09;5451366;26;20072;-82
2024/04/25 07:15:39;;;;;;;4.32;1.67;;;;;;;14.91;100.00;96410.41;5450793;26;20011;-81
2024/04/25 07:18:06;;;;;;;3.25;1.63;;;;;;;15.10;100.00;96410.31;5417396;26;20000;-80
2024/04/25 07:20:35;;;;;;;1.55;1.30;;;;;;;15.17;100.00;96419.44;5436277;26;20418;-82
2024/04/25 07:23:02;;;;;;;4.13;2.03;;;;;;;15.33;100.00;96416.09;5439372;26;20023;-81
2024/04/25 07:25:27;;;;;;;4.78;2.50;;;;;;;15.10;100.00;96431.84;5491630;26;20025;-84
2024/04/25 07:27:54;;;;;;;4.13;1.80;;;;;;;14.71;100.00;96433.00;5491554;25;20817;-81
2024/04/25 07:30:20;;;;;;;7.93;2.45;;;;;;;14.68;100.00;96430.59;5464671;26;20029;-81
2024/04/25 07:32:45;;;;;;;5.95;2.00;;;;;;;14.52;100.00;96440.16;5440555;26;20005;-82
2024/04/25 07:35:14;;;;;;;1.55;1.27;;;;;;;14.38;100.00;96443.31;5426246;26;20297;-82
2024/04/25 07:37:39;;;;;;;4.97;1.90;;;;;;;14.64;100.00;96447.03;5523667;25;19997;-83
2024/04/25 07:40:14;;;;;;;5.43;2.10;;;;;;;14.75;100.00;96439.78;5461422;26;20067;-83
2024/04/25 07:42:39;;;;;;;2.90;2.05;;;;;;;14.91;100.00;96446.25;5480574;26;20425;-83
2024/04/25 07:45:06;;;;;;;5.53;2.60;;;;;;;15.25;100.00;96446.50;5523811;26;20012;-82
2024/04/25 07:47:31;;;;;;;4.47;1.90;;;;;;;15.43;100.00;96444.69;5470199;26;19994;-82
2024/04/25 07:49:58;;;;;;;7.22;2.08;;;;;;;15.37;100.00;96449.84;5454592;26;19998;-82
2024/04/25 07:52:23;;;;;;;2.75;1.80;;;;;;;15.22;100.00;96451.34;5457605;26;20012;-82
2024/04/25 07:54:49;;;;;;;1.85;1.55;;;;;;;15.13;100.00;96445.00;5481636;26;19994;-82
2024/04/25 07:57:15;;;;;;;8.02;2.55;;;;;;;15.26;100.00;96441.97;5439056;26;20012;-82
2024/04/25 07:59:44;;;;;;;10.88;2.78;;;;;;;15.22;100.00;96424.41;5432148;26;20369;-83
2024/04/25 08:02:10;;;;;;;9.40;2.70;;;;;;;15.32;100.00;96439.50;5462309;26;20078;-83
2024/04/25 08:04:39;;;;;;;2.35;1.63;;;;;;;15.20;100.00;96438.84;5460046;26;19993;-82
2024/04/25 08:07:07;;;;;;;3.45;1.65;;;;;;;15.51;100.00;96430.47;5460446;26;20003;-83
2024/04/25 08:09:34;;;;;;;3.35;2.08;;;;;;;15.62;100.00;96422.19;5471054;26;19998;-83
2024/04/25 08:12:00;;;;;;;6.40;2.35;;;;;;;16.01;100.00;96436.19;5439968;26;20321;-82
2024/04/25 08:14:27;;;;;;;3.72;2.00;;;;;;;15.79;95.99;96432.09;5431277;26;19998;-83
2024/04/25 08:16:56;;;;;;;3.85;1.95;;;;;;;15.94;93.86;96432.41;5478796;26;19997;-82
2024/04/25 08:19:21;;;;;;;8.02;2.53;;;;;;;15.93;95.10;96422.63;5430189;26;20324;-82
2024/04/25 08:21:48;;;;;;;2.63;1.35;;;;;;;16.02;94.38;96440.56;5454531;26;20009;-83
2024/04/25 08:24:13;;;;;;;2.20;1.40;;;;;;;15.97;94.26;96421.28;5492204;26;20006;-83
2024/04/25 08:26:42;;;;;;;2.13;1.20;;;;;;;15.67;92.99;96436.03;5424168;26;20306;-83
2024/04/25 08:29:09;;;;;;;6.82;1.50;;;;;;;15.72;95.94;96445.34;5452988;26;19998;-83
2024/04/25 08:31:35;;;;;;;2.83;1.45;;;;;;;15.75;96.76;96448.75;5484582;26;20001;-84
2024/04/25 08:34:00;;;;;;;1.70;1.30;;;;;;;15.79;96.39;96447.44;5454641;26;20433;-83
2024/04/25 08:36:26;;;;;;;7.30;1.60;;;;;;;15.78;96.16;96462.75;5476246;26;20067;-81
2024/04/25 08:38:51;;;;;;;2.85;1.52;;;;;;;15.78;94.70;96453.84;5486064;26;20009;-82
2024/04/25 08:41:18;;;;;;;3.42;1.80;;;;;;;15.67;98.07;96460.28;5469485;26;20002;-82
2024/04/25 08:43:44;;;;;;;14.75;4.20;;;;;;;15.67;100.00;96454.91;5487421;26;20009;-83
2024/04/25 08:46:16;;;;;;;24.65;5.20;;;;;;;15.64;98.72;96458.75;5457249;26;20526;-83
2024/04/25 08:48:42;;;;;;;3.00;1.90;;;;;;;15.68;94.73;96462.84;5492411;26;20439;-83
2024/04/25 08:51:09;;;;;;;2.42;1.77;;;;;;;15.72;95.61;96466.06;5492883;25;20038;-83
2024/04/25 08:53:37;;;;;;;4.40;2.13;;;;;;;15.66;98.31;96466.69;5507163;25;19997;-81
2024/04/25 08:56:05;;;;;;;3.25;1.80;;;;;;;15.59;96.66;96463.78;5435722;26;19994;-82
2024/04/25 08:58:30;;;;;;;4.80;1.70;;;;;;;15.55;94.93;96458.81;5462718;26;20069;-81
2024/04/25 09:00:58;;;;;;;4.97;2.25;;;;;;;15.39;95.84;96470.22;5510707;25;19993;-82
2024/04/25 09:03:24;;;;;;;3.70;1.75;;;;;;;15.26;96.75;96479.69;5449649;26;20452;-82
2024/04/25 09:05:50;;;;;;;2.20;1.50;;;;;;;14.71;98.27;96479.63;5489459;26;19994;-82
2024/04/25 09:08:17;;;;;;;4.68;1.73;;;;;;;14.70;100.00;96482.47;5468187;26;20023;-83
2024/04/25 09:10:43;;;;;;;2.00;1.17;;;;;;;14.60;100.00;96485.19;5462300;26;20025;-82
2024/04/25 09:13:10;;;;;;;7.25;1.42;;;;;;;14.62;100.00;96480.50;5524322;25;20325;-82
2024/04/25 09:15:35;;;;;;;8.43;3.08;;;;;;;14.61;100.00;96474.25;5493589;26;19990;-82
2024/04/25 09:18:02;;;;;;;18.90;5.25;;;;;;;14.64;100.00;96457.81;5493540;26;19998;-82
2024/04/25 09:20:29;;;;;;;3.35;1.80;;;;;;;14.85;100.00;96452.22;5440117;25;20402;-83
2024/04/25 09:22:56;;;;;;;3.97;1.60;;;;;;;15.30;100.00;96467.59;5472391;26;20344;-82
2024/04/25 09:25:22;;;;;;;1.80;1.30;;;;;;;15.94;100.00;96470.16;5508506;26;20008;-82
2024/04/25 09:27:47;;;;;;;3.47;1.83;;;;;;;16.48;100.00;96459.16;5474350;26;19994;-83
2024/04/25 09:30:16;;;;;;;2.55;1.45;;;;;;;16.93;90.35;96453.56;5473975;26;20072;-83
2024/04/25 09:32:42;;;;;;;3.40;1.20;;;;;;;17.37;84.78;96451.56;5504832;25;20004;-83
2024/04/25 09:35:10;;;;;;;4.72;1.38;;;;;;;17.23;78.77;96441.34;5492488;25;19998;-84
2024/04/25 09:37:36;;;;;;;1.77;1.00;;;;;;;17.06;77.54;96436.91;5525152;25;20005;-83
2024/04/25 09:40:01;;;;;;;4.00;0.80;;;;;;;17.39;74.06;96427.91;5471577;26;20423;-83
2024/04/25 09:42:30;;;;;;;1.42;0.98;;;;;;;17.29;72.89;96425.34;5459743;26;20063;-83
2024/04/25 09:44:56;;;;;;;3.78;1.30;;;;;;;17.66;71.94;96424.94;5490111;26;20005;-83
2024/04/25 09:47:34;;;;;;;2.60;1.50;;;;;;;17.92;69.06;96418.56;5474408;26;20009;-83
2024/04/25 09:50:11;;;;;;;2.65;1.90;;;;;;;18.51;65.81;96409.28;5477412;26;20078;-84
2024/04/25 09:53:03;;;;;;;4.05;1.58;;;;;;;18.59;68.04;96412.81;5440405;26;19994;-84
2024/04/25 09:55:37;;;;;;;2.35;1.00;;;;;;;18.88;64.88;96401.41;5436675;26;20430;-84
2024/04/25 09:58:05;;;;;;;6.90;1.60;;;;;;;18.12;70.36;96414.53;5493414;25;19997;-84
2024/04/25 10:00:31;;;;;;;2.83;1.73;;;;;;;17.85;74.10;96418.38;5455844;26;20005;-84
2024/04/25 10:02:58;;;;;;;5.35;1.75;;;;;;;17.35;76.97;96431.94;5459588;26;20001;-83
2024/04/25 10:05:23;;;;;;;1.98;1.10;;;;;;;17.36;81.33;96430.94;5469682;26;19993;-84
2024/04/25 10:07:50;;;;;;;2.40;1.08;;;;;;;17.60;76.55;96425.63;5434011;26;19990;-83
2024/04/25 10:10:16;;;;;;;3.53;1.08;;;;;;;17.59;76.54;96426.66;5459374;26;20026;-84
2024/04/25 10:12:50;;;;;;;8.20;2.78;;;;;;;17.97;75.60;96429.72;5459331;26;20001;-84
2024/04/25 10:15:26;;;;;;;3.92;1.70;;;;;;;17.50;76.94;96424.06;5495519;26;19997;-85
2024/04/25 10:17:52;;;;;;;3.30;1.90;;;;;;;17.51;76.23;96423.88;5465295;26;20005;-84
2024/04/25 10:20:18;;;;;;;7.93;2.33;;;;;;;17.59;75.37;96423.94;5500352;26;20005;-83
2024/04/25 10:23:04;;;;;;;3.17;1.70;;;;;;;17.99;72.34;96419.59;5468495;26;20355;-84
2024/04/25 10:25:29;;;;;;;2.05;1.10;;;;;;;18.55;69.28;96411.47;5467245;26;20034;-84
2024/04/25 10:28:02;;;;;;;2.00;1.15;;;;;;;19.19;64.27;96396.03;5527946;25;20320;-84
2024/04/25 10:30:27;;;;;;;;;;;;;;;19.09;62.79;96398.97;5495829;26;20001;-84
2024/04/25 10:32:53;;;;;;;1.67;0.90;;;;;;;19.38;58.09;96390.19;5436461;26;19923;-85
2024/04/25 10:35:19;;;;;;;7.28;1.27;;;;;;;19.42;59.93;96391.53;5428884;26;20363;-85
2024/04/25 10:37:49;;;;;;;8.43;1.83;;;;;;;19.20;61.19;96389.56;5439674;25;20409;-85
2024/04/25 10:40:16;;;;;;;2.47;1.00;;;;;;;19.23;61.11;96402.78;5527730;25;20314;-84
2024/04/25 10:42:42;;;;;;;1.10;1.00;;;;;;;19.11;60.36;96386.06;5526096;25;20354;-84
2024/04/25 10:45:08;;;;;;;1.65;0.90;;;;;;;19.26;60.09;96387.00;5437744;26;20311;-83
2024/04/25 10:47:34;;;;;;;3.58;0.90;;;;;;;18.38;60.73;96386.25;5451717;26;20003;-83
2024/04/25 10:50:00;;;;;;;1.98;1.05;;;;;;;18.36;67.50;96392.84;5527560;25;19989;-83
2024/04/25 10:52:26;;;;;;;1.52;1.20;;;;;;;17.63;70.45;96390.13;5463280;26;19993;-84
2024/04/25 10:54:52;;;;;;;1.85;1.13;;;;;;;17.73;73.01;96400.78;5525968;25;20007;-82
2024/04/25 10:57:17;;;;;;;4.55;2.38;;;;;;;17.92;72.80;96410.44;5513541;26;19990;-84
2024/04/25 10:59:44;;;;;;;1.80;1.25;;;;;;;17.82;74.93;96414.16;5447994;26;20309;-85
2024/04/25 11:02:11;;;;;;;2.50;1.55;;;;;;;17.44;82.77;96414.75;5483871;26;20021;-83
2024/04/25 11:04:42;;;;;;;2.47;1.63;;;;;;;17.61;83.86;96416.50;5466438;26;20085;-84
2024/04/25 11:07:10;;;;;;;4.13;1.98;;;;;;;17.70;85.07;96415.50;5489713;26;19997;-84
2024/04/25 11:09:38;;;;;;;1.80;1.30;;;;;;;17.17;86.66;96423.94;5464373;26;20013;-84
2024/04/25 11:12:05;;;;;;;1.95;1.50;;;;;;;17.24;90.67;96418.72;5496285;26;20034;-85
2024/04/25 11:14:34;;;;;;;2.30;1.90;;;;;;;17.24;90.56;96429.53;5484525;26;20444;-85
2024/04/25 11:17:02;;;;;;;6.85;2.08;;;;;;;17.23;92.26;96420.59;5487313;26;20005;-84
2024/04/25 11:19:30;;;;;;;3.60;2.10;;;;;;;17.09;92.95;96417.66;5504124;25;22668;-84
2024/04/25 11:21:56;;;;;;;3.50;1.75;;;;;;;16.76;93.68;96424.78;5489067;26;19998;-84
2024/04/25 11:24:22;;;;;;;2.47;1.80;;;;;;;16.43;100.00;96423.66;5432927;26;20489;-83
2024/04/25 11:26:49;;;;;;;2.97;1.60;;;;;;;16.40;99.48;96415.91;5462388;26;20008;-83
2024/04/25 11:29:16;;;;;;;6.15;3.25;;;;;;;16.49;98.84;96412.25;5463557;26;19998;-83